Time;durP1;ratioP1;P1;durP2;ratioP2;P2;SDS_P1;SDS_P2;PMS_P1;PMS_P2;Temp;Humidity;BMP_temperature;BMP_pressure;BME280_temperature;BME280_humidity;BME280_pressure;Samples;Min_cycle;Max_cycle;Signal;HPM_P1;HPM_P2
2023/05/17 00:01:08;;;;;;;1.27;0.80;;;;;;;22.11;31.90;101207.78;4553318;28;20098;-62
2023/05/17 00:03:18;;;;;;;0.80;0.73;;;;;;;22.13;32.19;101214.00;4554226;28;20125;-62
2023/05/17 00:05:29;;;;;;;0.95;0.60;;;;;;;22.11;32.36;101208.63;4552618;28;20028;-61
2023/05/17 00:07:39;;;;;;;0.98;0.80;;;;;;;21.98;32.16;101183.13;4553781;28;20045;-62
2023/05/17 00:09:50;;;;;;;1.67;0.85;;;;;;;22.14;32.14;101213.63;4552614;28;20123;-62
2023/05/17 00:12:01;;;;;;;1.23;0.80;;;;;;;22.11;32.41;101208.63;4552644;28;20435;-62
2023/05/17 00:14:11;;;;;;;1.52;1.00;;;;;;;22.12;32.55;101213.16;4555594;28;20103;-62
2023/05/17 00:16:22;;;;;;;1.30;0.82;;;;;;;22.10;32.46;101208.97;4553714;28;21075;-62
2023/05/17 00:18:32;;;;;;;1.20;0.85;;;;;;;22.09;32.07;101196.63;4552847;28;20032;-62
2023/05/17 00:20:42;;;;;;;1.13;0.98;;;;;;;22.09;31.97;101202.38;4553841;28;20043;-62
2023/05/17 00:22:53;;;;;;;0.93;0.90;;;;;;;22.08;32.49;101199.88;4552390;28;20072;-62
2023/05/17 00:25:04;;;;;;;1.20;0.90;;;;;;;22.07;32.46;101193.28;4553624;28;20036;-62
2023/05/17 00:27:14;;;;;;;1.10;0.80;;;;;;;22.05;32.09;101189.09;4555090;28;20108;-62
2023/05/17 00:29:25;;;;;;;0.88;0.80;;;;;;;22.08;32.37;101194.97;4554708;28;20052;-62
2023/05/17 00:31:35;;;;;;;1.20;0.77;;;;;;;22.10;32.25;101206.91;4554650;28;20051;-62
2023/05/17 00:33:46;;;;;;;1.00;0.80;;;;;;;22.09;32.37;101210.16;4554859;28;20051;-62
2023/05/17 00:35:57;;;;;;;1.02;0.80;;;;;;;22.07;32.49;101199.03;4555145;28;20036;-62
2023/05/17 00:38:07;;;;;;;1.10;1.00;;;;;;;22.07;32.17;101203.97;4555567;28;20032;-62
2023/05/17 00:40:18;;;;;;;1.52;0.93;;;;;;;22.07;32.52;101210.53;4554714;28;20315;-62
2023/05/17 00:42:28;;;;;;;1.10;0.80;;;;;;;22.06;32.55;101208.88;4556260;28;20037;-62
2023/05/17 00:44:39;;;;;;;1.38;0.80;;;;;;;22.08;32.69;101215.09;4555711;28;20037;-62
2023/05/17 00:46:49;;;;;;;1.27;0.88;;;;;;;22.07;32.29;101207.66;4554225;28;20079;-62
2023/05/17 00:49:00;;;;;;;1.05;0.95;;;;;;;22.07;32.22;101210.53;4555283;28;20102;-62
2023/05/17 00:51:12;;;;;;;1.23;0.75;;;;;;;22.07;32.06;101206.84;4554117;28;20132;-62
2023/05/17 00:53:22;;;;;;;1.60;1.00;;;;;;;22.04;32.49;101211.25;4552817;28;20175;-62
2023/05/17 00:55:33;;;;;;;0.88;0.80;;;;;;;22.04;32.05;101205.50;4555818;28;20151;-62
2023/05/17 00:57:43;;;;;;;1.35;0.80;;;;;;;22.06;32.32;101210.88;4552473;28;20040;-62
2023/05/17 00:59:55;;;;;;;1.38;0.90;;;;;;;22.06;32.54;101213.75;4554395;28;20107;-62
2023/05/17 01:02:05;;;;;;;0.85;0.80;;;;;;;22.05;32.09;101207.19;4554054;28;20667;-62
2023/05/17 01:04:16;;;;;;;1.17;0.90;;;;;;;22.04;32.60;101211.25;4554502;28;20670;-62
2023/05/17 01:06:27;;;;;;;0.85;0.80;;;;;;;22.03;32.64;101209.59;4553436;28;20066;-63
2023/05/17 01:08:37;;;;;;;1.45;0.80;;;;;;;22.03;32.17;101212.47;4555254;28;20032;-62
2023/05/17 01:11:09;;;;;;;1.35;1.00;;;;;;;22.05;32.44;101218.69;4559153;28;20147;-62
2023/05/17 01:13:38;;;;;;;1.15;0.85;;;;;;;22.02;32.57;101210.78;4551476;28;20037;-64
2023/05/17 01:16:01;;;;;;;1.52;1.00;;;;;;;22.02;32.22;101219.41;4554487;28;20037;-63
2023/05/17 01:18:30;;;;;;;1.10;0.90;;;;;;;22.01;32.05;101219.75;4554162;28;20128;-64
2023/05/17 01:20:44;;;;;;;1.67;1.10;;;;;;;22.00;32.24;101216.06;4555342;28;20036;-65
2023/05/17 01:23:24;;;;;;;1.30;1.02;;;;;;;22.02;32.25;101216.53;4554070;28;20040;-63
2023/05/17 01:25:50;;;;;;;1.15;0.80;;;;;;;22.03;32.42;101217.38;4555612;27;20038;-63
2023/05/17 01:28:04;;;;;;;1.30;1.07;;;;;;;21.88;32.10;101195.13;4553355;28;20091;-65
2023/05/17 01:30:17;;;;;;;0.93;0.80;;;;;;;21.97;32.08;101218.81;4554185;28;20142;-64
2023/05/17 01:32:28;;;;;;;0.98;0.80;;;;;;;21.96;31.98;101215.09;4554075;28;20045;-64
2023/05/17 01:34:40;;;;;;;1.10;0.85;;;;;;;22.02;32.03;101221.47;4554247;28;20067;-63
2023/05/17 01:36:51;;;;;;;1.15;0.90;;;;;;;22.00;32.45;101227.56;4555884;28;20064;-62
2023/05/17 01:39:02;;;;;;;1.45;0.90;;;;;;;21.95;32.35;101210.56;4552852;28;20115;-64
2023/05/17 01:41:30;;;;;;;1.67;0.80;;;;;;;22.00;32.03;101224.69;4554688;28;20024;-63
2023/05/17 01:43:50;;;;;;;1.20;1.00;;;;;;;22.00;32.40;101227.56;4552709;28;20088;-63
2023/05/17 01:46:25;;;;;;;1.05;0.88;;;;;;;22.00;32.57;101238.22;4553054;28;20048;-62
2023/05/17 01:48:44;;;;;;;1.02;0.80;;;;;;;21.99;32.24;101243.13;4555314;28;20033;-62
2023/05/17 01:50:57;;;;;;;1.15;0.82;;;;;;;21.96;32.47;101243.84;4552540;28;20036;-62
2023/05/17 01:53:19;;;;;;;1.42;0.90;;;;;;;21.93;32.68;101235.94;4552014;28;20142;-62
2023/05/17 01:55:35;;;;;;;1.48;1.00;;;;;;;21.97;32.10;101239.78;4555319;28;20024;-62
2023/05/17 01:57:49;;;;;;;1.00;0.85;;;;;;;21.98;32.36;101247.22;4554672;28;20037;-62
2023/05/17 02:00:05;;;;;;;0.88;0.77;;;;;;;21.96;32.30;101246.72;4543468;28;20083;-62
2023/05/17 02:02:25;;;;;;;1.85;1.13;;;;;;;21.90;32.60;101238.69;4553030;28;20579;-63
2023/05/17 02:04:35;;;;;;;1.13;0.98;;;;;;;21.97;32.11;101257.03;4555585;28;20507;-62
2023/05/17 02:06:46;;;;;;;1.63;0.80;;;;;;;21.96;32.29;101254.53;4536926;28;20067;-62
2023/05/17 02:08:57;;;;;;;0.70;0.70;;;;;;;21.95;32.36;101256.56;4552333;28;20103;-62
2023/05/17 02:11:08;;;;;;;1.42;0.70;;;;;;;21.90;32.61;101238.69;4553857;28;20043;-62
2023/05/17 02:13:18;;;;;;;1.02;0.82;;;;;;;21.90;32.05;101245.28;4555278;28;20883;-62
2023/05/17 02:15:29;;;;;;;1.30;0.90;;;;;;;21.84;32.26;101245.91;4553682;28;20036;-62
2023/05/17 02:17:39;;;;;;;1.50;1.08;;;;;;;21.93;32.34;101250.31;4554189;28;20073;-62
2023/05/17 02:19:50;;;;;;;1.02;0.77;;;;;;;21.94;32.17;101262.66;4552683;28;20040;-62
2023/05/17 02:22:00;;;;;;;1.33;0.80;;;;;;;21.89;32.35;101242.78;4552790;28;20499;-62
2023/05/17 02:24:13;;;;;;;0.88;0.70;;;;;;;21.92;32.19;101251.53;4553518;28;20135;-62
2023/05/17 02:26:23;;;;;;;1.25;0.95;;;;;;;21.93;32.52;101253.19;4553600;28;20437;-62
2023/05/17 02:28:34;;;;;;;0.80;0.75;;;;;;;21.89;32.36;101249.38;4551091;28;20043;-62
2023/05/17 02:30:46;;;;;;;1.10;0.80;;;;;;;21.90;32.30;101248.16;4554577;28;20035;-62
2023/05/17 02:32:57;;;;;;;1.25;0.90;;;;;;;21.89;32.60;101242.78;4554978;28;20043;-62
2023/05/17 02:35:08;;;;;;;0.80;0.80;;;;;;;21.88;32.20;101244.81;4555172;28;20488;-62
2023/05/17 02:37:18;;;;;;;0.90;0.77;;;;;;;21.91;32.53;101264.19;4551252;28;20143;-62
2023/05/17 02:39:31;;;;;;;1.13;0.77;;;;;;;21.88;32.12;101259.19;4553675;28;20036;-62
2023/05/17 02:41:42;;;;;;;1.20;0.80;;;;;;;21.76;32.24;101239.09;4553558;28;21050;-62
2023/05/17 02:43:53;;;;;;;1.27;0.90;;;;;;;21.89;32.41;101258.00;4553961;28;20032;-62
2023/05/17 02:46:03;;;;;;;1.15;0.80;;;;;;;21.90;32.74;101264.56;4552832;28;20080;-62
2023/05/17 02:48:14;;;;;;;0.80;0.70;;;;;;;21.87;32.79;101266.13;4554343;27;20577;-62
2023/05/17 02:50:24;;;;;;;1.25;0.82;;;;;;;21.90;32.71;101273.19;4552132;28;20131;-63
2023/05/17 02:52:35;;;;;;;1.63;0.80;;;;;;;21.90;32.64;101271.16;4553185;28;20579;-64
2023/05/17 02:54:46;;;;;;;1.45;1.00;;;;;;;21.90;32.62;101264.56;4537245;28;20899;-62
2023/05/17 02:56:57;;;;;;;1.00;0.80;;;;;;;21.87;32.64;101266.13;4541691;28;20218;-62
2023/05/17 02:59:07;;;;;;;0.80;0.80;;;;;;;21.86;32.78;101267.34;4553069;28;20036;-62
2023/05/17 03:01:20;;;;;;;1.15;0.77;;;;;;;21.87;32.88;101266.13;4540559;28;20025;-62
2023/05/17 03:03:30;;;;;;;0.80;0.70;;;;;;;21.87;32.91;101266.13;4552207;28;20033;-62
2023/05/17 03:05:42;;;;;;;1.05;0.77;;;;;;;21.85;32.69;101265.66;4553587;28;20020;-62
2023/05/17 03:07:52;;;;;;;1.52;0.90;;;;;;;21.81;32.87;101258.97;4552440;28;20028;-62
2023/05/17 03:10:03;;;;;;;1.20;0.70;;;;;;;21.87;33.07;101274.75;4552980;28;20040;-62
2023/05/17 03:12:20;;;;;;;1.38;0.60;;;;;;;21.85;32.58;101280.03;4553456;28;20051;-62
2023/05/17 03:14:30;;;;;;;0.80;0.70;;;;;;;21.85;32.74;101274.28;4553880;28;20040;-62
2023/05/17 03:16:41;;;;;;;1.00;0.90;;;;;;;21.84;32.93;101277.50;4554384;28;20124;-62
2023/05/17 03:18:52;;;;;;;1.23;0.80;;;;;;;21.85;32.94;101282.91;4553652;28;20064;-62
2023/05/17 03:21:03;;;;;;;1.15;0.80;;;;;;;21.83;32.85;101278.72;4541149;28;20902;-62
2023/05/17 03:23:14;;;;;;;0.85;0.75;;;;;;;21.83;33.37;101275.84;4552678;28;20028;-62
2023/05/17 03:25:33;;;;;;;1.48;0.80;;;;;;;21.71;32.99;101268.03;4567765;27;20028;-62
2023/05/17 03:27:45;;;;;;;1.33;0.80;;;;;;;21.82;33.22;101289.38;4552644;28;20039;-62
2023/05/17 03:29:55;;;;;;;1.17;0.73;;;;;;;21.80;32.98;101286.00;4553189;28;20416;-62
2023/05/17 03:32:07;;;;;;;0.73;0.60;;;;;;;21.83;32.93;101296.81;4527077;28;20043;-62
2023/05/17 03:34:18;;;;;;;0.95;0.60;;;;;;;21.82;33.40;101291.38;4554093;27;20043;-62
2023/05/17 03:36:30;;;;;;;1.80;0.93;;;;;;;21.84;33.03;101300.50;4557175;28;20037;-62
2023/05/17 03:38:40;;;;;;;1.65;0.82;;;;;;;21.75;33.08;101289.13;4555721;28;20518;-62
2023/05/17 03:40:52;;;;;;;2.03;0.80;;;;;;;21.82;32.97;101305.75;4541247;28;20021;-62
2023/05/17 03:43:03;;;;;;;1.38;0.80;;;;;;;21.82;32.78;101305.75;4536198;28;20468;-62
2023/05/17 03:45:15;;;;;;;1.05;0.77;;;;;;;21.81;33.06;101307.81;4543560;28;20118;-63
2023/05/17 03:47:25;;;;;;;1.33;0.77;;;;;;;21.80;33.17;101308.19;4554580;28;20190;-62
2023/05/17 03:49:36;;;;;;;1.30;0.80;;;;;;;21.78;33.49;101305.66;4542649;28;20838;-62
2023/05/17 03:51:46;;;;;;;1.83;0.90;;;;;;;21.81;33.27;101309.84;4553274;28;20041;-62
2023/05/17 03:53:59;;;;;;;1.33;0.80;;;;;;;21.80;33.22;101311.88;4538240;28;20033;-62
2023/05/17 03:56:10;;;;;;;1.13;0.75;;;;;;;21.81;33.34;101322.19;4542926;28;20037;-62
2023/05/17 03:58:21;;;;;;;1.00;0.80;;;;;;;21.78;33.15;101304.81;4554966;28;20475;-62
2023/05/17 04:00:32;;;;;;;1.75;0.90;;;;;;;21.79;33.47;101318.81;4554718;28;20056;-62
2023/05/17 04:02:49;;;;;;;1.20;0.82;;;;;;;21.77;33.66;101309.72;4543696;28;20016;-62
2023/05/17 04:05:01;;;;;;;1.30;0.95;;;;;;;21.80;33.18;101317.63;4552693;28;20518;-62
2023/05/17 04:07:12;;;;;;;1.02;0.70;;;;;;;21.77;33.44;101314.66;4555813;28;20021;-62
2023/05/17 04:09:22;;;;;;;1.48;0.93;;;;;;;21.79;33.59;101323.72;4555464;28;20061;-62
2023/05/17 04:11:33;;;;;;;1.17;0.80;;;;;;;21.73;33.34;101316.50;4555774;28;20121;-62
2023/05/17 04:13:43;;;;;;;0.88;0.75;;;;;;;21.78;33.68;101328.66;4555669;28;20048;-62
2023/05/17 04:15:53;;;;;;;1.30;0.90;;;;;;;21.76;33.45;101331.03;4556037;28;20023;-62
2023/05/17 04:18:04;;;;;;;0.90;0.80;;;;;;;21.77;33.24;101323.25;4556162;28;20068;-62
2023/05/17 04:20:15;;;;;;;1.77;0.90;;;;;;;21.73;33.30;101328.00;4554747;28;20040;-62
2023/05/17 04:22:25;;;;;;;1.30;0.90;;;;;;;21.76;33.29;101325.28;4553199;28;20032;-62
2023/05/17 04:24:36;;;;;;;1.00;0.68;;;;;;;21.73;33.04;101336.63;4543964;28;20972;-62
2023/05/17 04:26:47;;;;;;;1.60;0.90;;;;;;;21.75;33.26;101339.97;4543019;28;20064;-61
2023/05/17 04:28:57;;;;;;;1.60;1.00;;;;;;;21.75;33.64;101346.63;4554629;28;20028;-62
2023/05/17 04:31:08;;;;;;;1.60;1.00;;;;;;;21.75;33.58;101349.47;4552768;28;20044;-62
2023/05/17 04:33:18;;;;;;;1.85;1.23;;;;;;;21.71;33.56;101354.22;4554969;28;20032;-62
2023/05/17 04:35:29;;;;;;;1.95;1.50;;;;;;;21.76;33.37;101359.78;4560473;28;20032;-62
2023/05/17 04:37:40;;;;;;;1.50;1.10;;;;;;;21.74;33.12;101365.00;4536976;28;20032;-62
2023/05/17 04:40:01;;;;;;;0.90;0.90;;;;;;;21.75;33.21;101365.84;4554665;28;20067;-62
2023/05/17 04:42:13;;;;;;;1.85;1.20;;;;;;;21.74;33.44;101367.88;4554784;28;20634;-62
2023/05/17 04:44:29;;;;;;;2.05;1.30;;;;;;;21.72;33.35;101360.81;4554626;28;20033;-62
2023/05/17 04:46:40;;;;;;;2.33;1.58;;;;;;;21.75;33.39;101369.59;4543192;28;20162;-62
2023/05/17 04:48:52;;;;;;;2.10;1.20;;;;;;;21.65;33.38;101363.41;4553115;28;20068;-62
2023/05/17 04:51:03;;;;;;;1.75;1.00;;;;;;;21.70;33.81;101372.66;4555611;28;20674;-62
2023/05/17 04:53:14;;;;;;;2.00;1.10;;;;;;;21.73;33.63;101383.44;4526466;28;20523;-62
2023/05/17 04:55:25;;;;;;;1.10;1.00;;;;;;;21.72;32.91;101387.50;4554942;28;20036;-62
2023/05/17 04:57:36;;;;;;;2.13;1.15;;;;;;;21.69;33.12;101379.59;4555820;28;20032;-62
2023/05/17 04:59:48;;;;;;;1.40;0.90;;;;;;;21.73;33.41;101394.94;4552927;28;20187;-62
2023/05/17 05:01:58;;;;;;;1.17;0.90;;;;;;;21.65;33.77;101387.25;4543601;28;20059;-62
2023/05/17 05:04:09;;;;;;;1.10;1.00;;;;;;;21.69;34.08;101399.69;4554783;28;20058;-62
2023/05/17 05:06:24;;;;;;;1.08;0.90;;;;;;;21.69;34.18;101399.69;4553362;28;20119;-62
2023/05/17 05:08:35;;;;;;;1.27;1.00;;;;;;;21.72;33.85;101398.16;4553601;28;20037;-64
2023/05/17 05:10:47;;;;;;;1.98;1.10;;;;;;;21.73;33.97;101406.44;4537207;28;20048;-62
2023/05/17 05:13:00;;;;;;;1.27;1.00;;;;;;;21.71;33.88;101399.34;4553576;28;20941;-62
2023/05/17 05:15:11;;;;;;;1.25;1.00;;;;;;;21.71;34.27;101405.94;4554511;28;20500;-62
2023/05/17 05:17:24;;;;;;;1.63;1.00;;;;;;;21.70;34.28;101407.16;4554630;28;20029;-62
2023/05/17 05:19:35;;;;;;;1.17;0.80;;;;;;;21.72;34.42;101415.41;4555052;28;20463;-62
2023/05/17 05:21:45;;;;;;;1.75;1.10;;;;;;;21.71;34.68;101419.47;4543641;28;20109;-62
2023/05/17 05:23:57;;;;;;;1.23;0.85;;;;;;;21.70;34.64;101421.50;4555147;28;20037;-62
2023/05/17 05:26:07;;;;;;;1.30;0.90;;;;;;;21.71;34.74;101425.19;4554706;28;20476;-62
2023/05/17 05:28:18;;;;;;;1.35;1.00;;;;;;;21.70;34.98;101430.13;4554434;28;20071;-62
2023/05/17 05:30:28;;;;;;;1.08;0.77;;;;;;;21.66;35.83;101423.41;4554317;28;20432;-62
2023/05/17 05:32:39;;;;;;;0.60;0.60;;;;;;;21.69;39.04;101428.44;4541398;28;21005;-62
2023/05/17 05:34:50;;;;;;;1.27;0.80;;;;;;;21.71;39.71;101426.06;4553152;28;20048;-62
2023/05/17 05:37:00;;;;;;;1.77;0.88;;;;;;;21.69;39.91;101434.19;4553967;28;20115;-62
2023/05/17 05:39:11;;;;;;;1.42;0.80;;;;;;;21.73;39.47;101440.06;4554200;28;20057;-62
2023/05/17 05:41:22;;;;;;;0.80;0.70;;;;;;;21.68;39.27;101425.91;4554191;28;20083;-62
2023/05/17 05:43:34;;;;;;;1.20;0.80;;;;;;;21.71;39.86;101431.81;4554571;28;20056;-62
2023/05/17 05:45:46;;;;;;;1.50;0.70;;;;;;;21.71;39.66;101436.69;4553014;28;20036;-62
2023/05/17 05:47:56;;;;;;;2.20;1.08;;;;;;;21.71;39.06;101434.66;4554564;28;20028;-62
2023/05/17 05:50:08;;;;;;;1.52;1.00;;;;;;;21.71;38.86;101442.44;4552123;28;20747;-62
2023/05/17 05:52:19;;;;;;;1.08;0.70;;;;;;;21.71;39.11;101442.44;4554393;28;20195;-62
2023/05/17 05:54:30;;;;;;;2.10;1.10;;;;;;;21.71;39.04;101448.19;4553720;28;20048;-62
2023/05/17 05:56:42;;;;;;;1.65;1.10;;;;;;;21.72;38.57;101456.44;4552451;27;20594;-62
2023/05/17 05:58:56;;;;;;;1.55;0.90;;;;;;;21.72;38.47;101450.72;4553852;28;20647;-62
2023/05/17 06:01:07;;;;;;;1.58;0.90;;;;;;;21.70;39.50;101450.25;4553662;28;20154;-62
2023/05/17 06:03:17;;;;;;;2.53;1.00;;;;;;;21.72;38.17;101462.19;4555220;28;20040;-62
2023/05/17 06:05:28;;;;;;;1.33;0.90;;;;;;;21.71;38.10;101457.66;4555945;28;21295;-62
2023/05/17 06:07:38;;;;;;;1.77;1.10;;;;;;;21.69;39.20;101454.28;4553606;28;20111;-62
2023/05/17 06:09:49;;;;;;;1.30;0.80;;;;;;;21.70;39.20;101464.63;4553042;28;20124;-62
2023/05/17 06:12:00;;;;;;;1.90;1.10;;;;;;;21.69;38.26;101465.78;4554134;28;20066;-62
2023/05/17 06:14:10;;;;;;;1.75;0.90;;;;;;;21.73;38.23;101474.53;4552992;28;20548;-62
2023/05/17 06:16:20;;;;;;;2.53;1.20;;;;;;;21.72;37.98;101482.31;4554871;28;20044;-62
2023/05/17 06:18:34;;;;;;;1.52;1.08;;;;;;;21.71;37.69;101474.91;4554080;28;20051;-62
2023/05/17 06:20:45;;;;;;;2.28;0.88;;;;;;;21.69;38.02;101474.41;4553895;28;20503;-62
2023/05/17 06:22:55;;;;;;;2.28;1.00;;;;;;;21.56;38.73;101458.34;4554051;28;20032;-62
2023/05/17 06:25:06;;;;;;;1.40;0.82;;;;;;;21.70;38.08;101487.59;4554256;28;20029;-62
2023/05/17 06:27:17;;;;;;;1.55;0.90;;;;;;;21.69;37.44;101485.91;4553889;28;20052;-62
2023/05/17 06:29:27;;;;;;;1.50;0.90;;;;;;;21.68;38.13;101484.22;4553549;28;20139;-63
2023/05/17 06:31:38;;;;;;;1.50;0.80;;;;;;;21.71;38.17;101491.28;4554352;28;20041;-65
2023/05/17 06:33:48;;;;;;;1.90;1.00;;;;;;;21.65;37.81;101484.94;4552932;28;20692;-62
2023/05/17 06:35:58;;;;;;;2.38;1.02;;;;;;;21.66;38.10;101482.91;4553728;28;20049;-62
2023/05/17 06:38:09;;;;;;;1.98;0.90;;;;;;;21.66;37.79;101486.59;4551471;28;20474;-62
2023/05/17 06:40:19;;;;;;;1.83;0.93;;;;;;;21.68;38.43;101489.97;4554594;28;20036;-64
2023/05/17 06:42:30;;;;;;;1.23;0.80;;;;;;;21.67;37.85;101494.06;4555518;28;20074;-63
2023/05/17 06:44:41;;;;;;;1.88;0.93;;;;;;;21.63;36.74;101495.94;4554432;28;20033;-62
2023/05/17 06:46:51;;;;;;;1.83;0.95;;;;;;;21.66;36.19;101497.28;4552350;28;20079;-62
2023/05/17 06:49:01;;;;;;;1.65;0.98;;;;;;;21.60;35.48;101490.91;4554310;28;20025;-62
2023/05/17 06:51:17;;;;;;;2.38;1.00;;;;;;;21.66;36.31;101509.59;4553951;28;20131;-62
2023/05/17 06:53:28;;;;;;;1.27;0.90;;;;;;;21.66;36.49;101503.84;4554038;28;20060;-62
2023/05/17 06:55:39;;;;;;;1.60;0.95;;;;;;;21.64;36.30;101502.53;4551715;28;20931;-63
2023/05/17 06:57:50;;;;;;;1.55;1.00;;;;;;;21.63;35.81;101498.81;4553087;28;20041;-62
2023/05/17 07:00:00;;;;;;;1.67;1.05;;;;;;;21.64;35.08;101505.41;4554333;28;20135;-62
2023/05/17 07:02:10;;;;;;;2.10;1.00;;;;;;;21.62;34.99;101508.63;4553115;28;20028;-62
2023/05/17 07:04:21;;;;;;;1.98;0.90;;;;;;;21.62;34.91;101508.63;4553006;28;20214;-62
2023/05/17 07:06:32;;;;;;;1.45;0.75;;;;;;;21.61;35.07;101515.56;4552414;28;20403;-62
2023/05/17 07:08:43;;;;;;;1.63;0.88;;;;;;;21.61;35.34;101506.94;4556890;28;20032;-62
2023/05/17 07:10:53;;;;;;;1.67;0.90;;;;;;;21.56;34.51;101503.44;4557839;28;20101;-62
2023/05/17 07:13:04;;;;;;;3.72;1.00;;;;;;;21.60;34.45;101516.75;4555982;28;20455;-62
2023/05/17 07:15:14;;;;;;;1.33;0.73;;;;;;;21.58;34.49;101507.63;4556139;28;20412;-62
2023/05/17 07:17:25;;;;;;;1.42;0.82;;;;;;;21.53;34.89;101510.72;4555337;28;20075;-62
2023/05/17 07:19:35;;;;;;;1.83;0.98;;;;;;;21.54;34.76;101518.16;4556786;28;20094;-62
2023/05/17 07:21:46;;;;;;;2.15;0.98;;;;;;;21.55;34.03;101514.09;4556910;28;20040;-61
2023/05/17 07:23:56;;;;;;;2.22;0.77;;;;;;;21.58;34.07;101530.63;4556151;28;20118;-62
2023/05/17 07:26:06;;;;;;;2.13;0.90;;;;;;;21.58;33.57;101524.06;4557199;28;20152;-61
2023/05/17 07:28:17;;;;;;;1.75;0.95;;;;;;;21.56;33.19;101527.28;4555990;28;20415;-62
2023/05/17 07:30:27;;;;;;;1.52;0.80;;;;;;;21.57;33.06;101528.97;4558004;28;20067;-62
2023/05/17 07:32:38;;;;;;;1.38;0.73;;;;;;;21.57;34.51;101526.09;4556476;28;20029;-62
2023/05/17 07:34:48;;;;;;;1.65;0.70;;;;;;;21.56;33.66;101524.41;4555193;28;20568;-62
2023/05/17 07:36:58;;;;;;;1.08;0.63;;;;;;;21.54;33.02;101518.16;4556357;28;20032;-62
2023/05/17 07:39:09;;;;;;;1.98;0.70;;;;;;;21.56;32.63;101515.78;4552672;28;20127;-62
2023/05/17 07:41:22;;;;;;;1.75;0.90;;;;;;;21.57;33.10;101528.09;4555510;28;20028;-62
2023/05/17 07:43:32;;;;;;;1.38;0.70;;;;;;;21.54;32.94;101517.31;4555047;28;20049;-62
2023/05/17 07:45:42;;;;;;;0.98;0.63;;;;;;;21.55;33.13;101525.59;4556253;28;20040;-62
2023/05/17 07:47:53;;;;;;;1.10;0.60;;;;;;;21.55;32.35;101531.34;4555674;28;20041;-62
2023/05/17 07:50:04;;;;;;;1.55;0.65;;;;;;;21.50;32.44;101520.06;4556409;28;20627;-62
2023/05/17 07:52:15;;;;;;;1.10;0.70;;;;;;;21.57;31.93;101540.44;4556255;28;20053;-62
2023/05/17 07:54:26;;;;;;;0.50;0.50;;;;;;;21.56;32.06;101544.53;4555914;28;20086;-62
2023/05/17 07:56:36;;;;;;;1.83;0.60;;;;;;;21.58;32.88;101544.16;4554233;28;20105;-62
2023/05/17 07:58:47;;;;;;;2.22;0.80;;;;;;;21.55;32.78;101542.81;4555734;28;20143;-62
2023/05/17 08:00:58;;;;;;;1.00;0.60;;;;;;;21.55;33.13;101548.56;4556557;28;20025;-62
2023/05/17 08:03:09;;;;;;;0.90;0.60;;;;;;;21.54;31.94;101546.03;4556412;28;21111;-62
2023/05/17 08:05:19;;;;;;;1.45;0.60;;;;;;;21.55;32.08;101554.31;4555719;28;20086;-62
2023/05/17 08:07:30;;;;;;;1.63;0.60;;;;;;;21.57;31.96;101557.69;4556833;28;20025;-62
2023/05/17 08:09:43;;;;;;;2.75;0.77;;;;;;;21.56;31.80;101561.75;4556700;28;20480;-64
2023/05/17 08:11:53;;;;;;;1.10;0.60;;;;;;;21.54;32.71;101563.28;4556017;28;20102;-62
2023/05/17 08:14:04;;;;;;;1.20;0.70;;;;;;;21.55;32.08;101564.97;4557915;28;20062;-62
2023/05/17 08:16:14;;;;;;;0.88;0.70;;;;;;;21.54;32.03;101572.75;4543903;28;20714;-62
2023/05/17 08:18:25;;;;;;;0.90;0.50;;;;;;;21.57;31.55;101569.19;4556944;28;20091;-62
2023/05/17 08:20:36;;;;;;;1.13;0.52;;;;;;;21.58;31.64;101564.28;4554677;28;20535;-62
2023/05/17 08:22:46;;;;;;;1.38;0.60;;;;;;;21.56;30.71;101570.38;4554822;28;20107;-62
2023/05/17 08:24:57;;;;;;;1.38;0.68;;;;;;;21.59;31.06;101578.28;4554160;28;20025;-62
2023/05/17 08:27:08;;;;;;;1.33;0.50;;;;;;;21.58;31.59;101576.59;4554764;28;20626;-62
2023/05/17 08:29:19;;;;;;;1.20;0.80;;;;;;;21.57;31.32;101574.91;4555587;28;20519;-63
2023/05/17 08:31:31;;;;;;;0.98;0.77;;;;;;;21.53;31.75;101567.34;4556443;28;20052;-62
2023/05/17 08:33:41;;;;;;;1.52;0.68;;;;;;;21.55;30.69;101564.97;4556017;28;20041;-62
2023/05/17 08:35:54;;;;;;;1.23;0.63;;;;;;;21.60;30.92;101577.09;4554791;28;20037;-62
2023/05/17 08:38:04;;;;;;;1.30;0.60;;;;;;;21.57;31.31;101572.06;4556166;28;20144;-62
2023/05/17 08:40:18;;;;;;;0.88;0.50;;;;;;;21.58;31.23;101570.03;4555362;28;20044;-62
2023/05/17 08:42:29;;;;;;;1.42;0.60;;;;;;;21.59;31.31;101572.56;4555416;28;20070;-62
2023/05/17 08:44:40;;;;;;;1.48;0.70;;;;;;;21.57;31.67;101572.06;4553635;28;20543;-62
2023/05/17 08:46:52;;;;;;;0.85;0.63;;;;;;;21.59;31.81;101566.81;4554534;28;20029;-62
2023/05/17 08:49:04;;;;;;;2.10;0.60;;;;;;;21.61;32.13;101580.81;4555377;28;20029;-62
2023/05/17 08:51:16;;;;;;;1.17;0.50;;;;;;;21.61;30.07;101583.69;4554913;28;20048;-62
2023/05/17 08:53:27;;;;;;;1.08;0.50;;;;;;;21.60;30.12;101588.59;4555945;28;20032;-62
2023/05/17 08:55:44;;;;;;;1.13;0.50;;;;;;;21.61;29.91;101589.44;4554689;28;20040;-62
2023/05/17 08:57:54;;;;;;;1.38;0.55;;;;;;;21.57;30.13;101579.81;4555241;28;20147;-62
2023/05/17 09:00:08;;;;;;;0.95;0.50;;;;;;;21.52;30.83;101572.25;4555719;28;20028;-62
2023/05/17 09:02:19;;;;;;;1.60;0.52;;;;;;;21.57;30.77;101576.94;4553920;28;20036;-62
2023/05/17 09:04:30;;;;;;;1.25;0.57;;;;;;;21.56;30.17;101578.16;4556569;28;20583;-62
2023/05/17 09:06:43;;;;;;;1.30;0.50;;;;;;;21.56;29.90;101579.00;4555627;28;20662;-62
2023/05/17 09:08:54;;;;;;;1.65;0.50;;;;;;;21.60;29.35;101581.97;4554534;28;20043;-62
2023/05/17 09:11:04;;;;;;;1.85;0.70;;;;;;;21.61;29.11;101589.44;4554557;28;20061;-62
2023/05/17 09:13:15;;;;;;;1.20;0.60;;;;;;;21.60;28.87;101591.47;4554033;28;20056;-62
2023/05/17 09:15:26;;;;;;;1.15;0.50;;;;;;;21.61;29.73;101587.38;4554450;28;20041;-62
2023/05/17 09:17:37;;;;;;;1.17;0.47;;;;;;;21.62;29.36;101585.34;4553662;28;20151;-62
2023/05/17 09:19:49;;;;;;;0.77;0.60;;;;;;;21.57;28.96;101576.94;4551588;27;20058;-62
2023/05/17 09:21:59;;;;;;;1.70;0.50;;;;;;;21.61;29.36;101592.31;4554410;28;20033;-62
2023/05/17 09:24:10;;;;;;;1.13;0.60;;;;;;;21.60;29.72;101585.72;4553669;28;20056;-62
2023/05/17 09:26:21;;;;;;;0.98;0.60;;;;;;;21.60;30.30;101591.47;4552027;28;20044;-62
2023/05/17 09:28:38;;;;;;;1.35;0.60;;;;;;;21.55;29.30;101585.91;4554998;28;20041;-62
2023/05/17 09:30:48;;;;;;;0.88;0.50;;;;;;;21.62;29.20;101591.94;4552605;28;20151;-62
2023/05/17 09:33:09;;;;;;;1.13;0.60;;;;;;;21.61;28.87;101589.44;4554145;28;20041;-62
2023/05/17 09:35:33;;;;;;;1.48;0.60;;;;;;;21.63;29.00;101595.66;4559325;28;20028;-62
2023/05/17 09:37:45;;;;;;;1.08;0.60;;;;;;;21.62;29.12;101594.81;4553153;28;20142;-62
2023/05/17 09:39:56;;;;;;;1.48;0.52;;;;;;;21.49;29.72;101572.09;4552854;28;20597;-62
2023/05/17 09:42:08;;;;;;;1.33;0.50;;;;;;;21.61;28.89;101590.25;4553152;28;20059;-61
2023/05/17 09:44:18;;;;;;;1.55;0.68;;;;;;;21.61;29.27;101589.44;4553595;28;20122;-62
2023/05/17 09:46:37;;;;;;;1.27;0.55;;;;;;;21.62;28.97;101588.22;4555172;28;20037;-62
2023/05/17 09:48:55;;;;;;;1.67;0.50;;;;;;;21.62;29.40;101586.22;4553441;28;21193;-62
2023/05/17 09:51:06;;;;;;;0.98;0.40;;;;;;;21.64;28.79;101597.34;4553582;28;20360;-62
2023/05/17 09:53:38;;;;;;;0.93;0.40;;;;;;;21.64;28.74;101594.47;4554767;28;20040;-62
2023/05/17 09:55:51;;;;;;;1.00;0.40;;;;;;;21.64;28.43;101600.22;4555325;28;20036;-62
2023/05/17 09:58:02;;;;;;;1.30;0.60;;;;;;;21.63;27.50;101596.50;4553962;28;20028;-62
2023/05/17 10:00:16;;;;;;;0.90;0.50;;;;;;;21.63;27.98;101596.50;4556127;28;20593;-61
2023/05/17 10:02:29;;;;;;;1.10;0.50;;;;;;;21.65;28.89;101605.63;4554856;28;20082;-62
2023/05/17 10:04:41;;;;;;;0.80;0.55;;;;;;;21.65;29.30;101605.63;4554200;28;20033;-62
2023/05/17 10:06:52;;;;;;;1.60;0.52;;;;;;;21.64;29.17;101598.19;4552554;28;20033;-62
2023/05/17 10:09:05;;;;;;;0.70;0.40;;;;;;;21.65;28.99;101602.75;4554710;28;20037;-62
2023/05/17 10:11:21;;;;;;;1.27;0.47;;;;;;;21.64;29.35;101588.72;4554182;28;20032;-62
2023/05/17 10:13:43;;;;;;;1.17;0.52;;;;;;;21.62;29.96;101599.72;4552729;28;20838;-62